sensor_id;sensor_type;location;lat;lon;timestamp;pressure;altitude;pressure_sealevel;temperature
28803;BMP280;15949;55.656;37.422;2022-10-16T00:00:14;100638.81;;;2.37
28803;BMP280;15949;55.656;37.422;2022-10-16T00:05:20;100641.00;;;2.35
28803;BMP280;15949;55.656;37.422;2022-10-16T00:10:26;100636.34;;;2.28
28803;BMP280;15949;55.656;37.422;2022-10-16T00:15:36;100649.72;;;2.23
28803;BMP280;15949;55.656;37.422;2022-10-16T00:20:42;100654.22;;;2.23
28803;BMP280;15949;55.656;37.422;2022-10-16T00:25:55;100657.06;;;2.18
28803;BMP280;15949;55.656;37.422;2022-10-16T00:31:04;100646.38;;;2.11
28803;BMP280;15949;55.656;37.422;2022-10-16T00:36:13;100659.84;;;2.09
28803;BMP280;15949;55.656;37.422;2022-10-16T00:41:20;100659.97;;;2.00
28803;BMP280;15949;55.656;37.422;2022-10-16T00:51:45;100660.97;;;1.96
28803;BMP280;15949;55.656;37.422;2022-10-16T00:56:52;100662.09;;;1.95
28803;BMP280;15949;55.656;37.422;2022-10-16T01:02:00;100669.84;;;1.91
28803;BMP280;15949;55.656;37.422;2022-10-16T01:07:14;100669.84;;;1.91
28803;BMP280;15949;55.656;37.422;2022-10-16T01:17:46;100674.72;;;1.77
28803;BMP280;15949;55.656;37.422;2022-10-16T01:28:25;100684.22;;;1.69
28803;BMP280;15949;55.656;37.422;2022-10-16T01:33:42;100685.06;;;1.61
28803;BMP280;15949;55.656;37.422;2022-10-16T01:38:51;100690.34;;;1.61
28803;BMP280;15949;55.656;37.422;2022-10-16T01:49:10;100684.75;;;1.62
28803;BMP280;15949;55.656;37.422;2022-10-16T01:54:18;100686.22;;;1.60
28803;BMP280;15949;55.656;37.422;2022-10-16T01:59:28;100688.47;;;1.61
28803;BMP280;15949;55.656;37.422;2022-10-16T02:04:39;100693.97;;;1.56
28803;BMP280;15949;55.656;37.422;2022-10-16T02:09:47;100687.63;;;1.57
28803;BMP280;15949;55.656;37.422;2022-10-16T02:14:54;100694.16;;;1.63
28803;BMP280;15949;55.656;37.422;2022-10-16T02:20:00;100690.00;;;1.62
28803;BMP280;15949;55.656;37.422;2022-10-16T02:25:10;100693.09;;;1.65
28803;BMP280;15949;55.656;37.422;2022-10-16T02:30:25;100698.66;;;1.63
28803;BMP280;15949;55.656;37.422;2022-10-16T02:35:33;100696.34;;;1.61
28803;BMP280;15949;55.656;37.422;2022-10-16T02:40:39;100695.59;;;1.61
28803;BMP280;15949;55.656;37.422;2022-10-16T02:45:45;100703.38;;;1.57
28803;BMP280;15949;55.656;37.422;2022-10-16T02:50:51;100702.50;;;1.53
28803;BMP280;15949;55.656;37.422;2022-10-16T02:55:56;100703.91;;;1.51
28803;BMP280;15949;55.656;37.422;2022-10-16T03:01:02;100701.72;;;1.53
28803;BMP280;15949;55.656;37.422;2022-10-16T03:06:08;100701.72;;;1.53
28803;BMP280;15949;55.656;37.422;2022-10-16T03:11:14;100710.47;;;1.57
28803;BMP280;15949;55.656;37.422;2022-10-16T03:16:20;100712.22;;;1.53
28803;BMP280;15949;55.656;37.422;2022-10-16T03:21:25;100720.44;;;1.51
28803;BMP280;15949;55.656;37.422;2022-10-16T03:26:31;100717.25;;;1.46
28803;BMP280;15949;55.656;37.422;2022-10-16T03:31:37;100720.63;;;1.46
28803;BMP280;15949;55.656;37.422;2022-10-16T03:36:42;100732.69;;;1.47
28803;BMP280;15949;55.656;37.422;2022-10-16T03:41:48;100721.06;;;1.48
28803;BMP280;15949;55.656;37.422;2022-10-16T03:46:54;100729.09;;;1.52
28803;BMP280;15949;55.656;37.422;2022-10-16T03:51:59;100723.50;;;1.53
28803;BMP280;15949;55.656;37.422;2022-10-16T03:57:05;100728.06;;;1.44
28803;BMP280;15949;55.656;37.422;2022-10-16T04:02:11;100729.88;;;1.40
28803;BMP280;15949;55.656;37.422;2022-10-16T04:07:17;100729.16;;;1.43
28803;BMP280;15949;55.656;37.422;2022-10-16T04:12:22;100731.91;;;1.34
28803;BMP280;15949;55.656;37.422;2022-10-16T04:17:28;100734.75;;;1.29
28803;BMP280;15949;55.656;37.422;2022-10-16T04:22:34;100727.19;;;1.28
28803;BMP280;15949;55.656;37.422;2022-10-16T04:27:39;100734.63;;;1.26
28803;BMP280;15949;55.656;37.422;2022-10-16T04:32:49;100739.88;;;1.26
28803;BMP280;15949;55.656;37.422;2022-10-16T04:37:57;100744.91;;;1.31
28803;BMP280;15949;55.656;37.422;2022-10-16T04:43:04;100751.25;;;1.30
28803;BMP280;15949;55.656;37.422;2022-10-16T04:48:10;100756.16;;;1.31
28803;BMP280;15949;55.656;37.422;2022-10-16T04:53:15;100754.34;;;1.32
28803;BMP280;15949;55.656;37.422;2022-10-16T04:58:21;100756.31;;;1.35
28803;BMP280;15949;55.656;37.422;2022-10-16T05:03:27;100750.50;;;1.41
28803;BMP280;15949;55.656;37.422;2022-10-16T05:08:33;100755.66;;;1.50
28803;BMP280;15949;55.656;37.422;2022-10-16T05:13:38;100751.44;;;1.58
28803;BMP280;15949;55.656;37.422;2022-10-16T05:18:44;100755.94;;;1.57
28803;BMP280;15949;55.656;37.422;2022-10-16T05:23:50;100763.88;;;1.61
28803;BMP280;15949;55.656;37.422;2022-10-16T05:28:55;100768.41;;;1.73
28803;BMP280;15949;55.656;37.422;2022-10-16T05:34:01;100769.81;;;1.82
28803;BMP280;15949;55.656;37.422;2022-10-16T05:39:07;100765.56;;;1.90
28803;BMP280;15949;55.656;37.422;2022-10-16T05:44:13;100766.31;;;2.03
28803;BMP280;15949;55.656;37.422;2022-10-16T05:49:19;100774.94;;;2.16
28803;BMP280;15949;55.656;37.422;2022-10-16T05:54:24;100776.81;;;2.27
28803;BMP280;15949;55.656;37.422;2022-10-16T05:59:30;100786.09;;;2.37
28803;BMP280;15949;55.656;37.422;2022-10-16T06:04:36;100785.41;;;2.53
28803;BMP280;15949;55.656;37.422;2022-10-16T06:09:41;100790.22;;;2.63
28803;BMP280;15949;55.656;37.422;2022-10-16T06:14:47;100785.75;;;2.79
28803;BMP280;15949;55.656;37.422;2022-10-16T06:19:54;100792.94;;;2.95
28803;BMP280;15949;55.656;37.422;2022-10-16T06:24:59;100794.84;;;3.10
28803;BMP280;15949;55.656;37.422;2022-10-16T06:30:06;100801.25;;;3.25
28803;BMP280;15949;55.656;37.422;2022-10-16T06:35:12;100797.44;;;3.54
28803;BMP280;15949;55.656;37.422;2022-10-16T06:40:17;100809.34;;;3.79
28803;BMP280;15949;55.656;37.422;2022-10-16T06:45:23;100804.03;;;3.95
28803;BMP280;15949;55.656;37.422;2022-10-16T06:50:29;100801.03;;;4.13
28803;BMP280;15949;55.656;37.422;2022-10-16T06:55:34;100804.50;;;4.33
28803;BMP280;15949;55.656;37.422;2022-10-16T07:00:40;100798.66;;;4.43
28803;BMP280;15949;55.656;37.422;2022-10-16T07:05:46;100798.41;;;4.67
28803;BMP280;15949;55.656;37.422;2022-10-16T07:11:02;100801.44;;;4.89
28803;BMP280;15949;55.656;37.422;2022-10-16T07:16:11;100800.59;;;5.08
28803;BMP280;15949;55.656;37.422;2022-10-16T07:21:21;100806.22;;;5.26
28803;BMP280;15949;55.656;37.422;2022-10-16T07:26:29;100803.16;;;5.47
28803;BMP280;15949;55.656;37.422;2022-10-16T07:31:35;100808.44;;;5.70
28803;BMP280;15949;55.656;37.422;2022-10-16T07:36:41;100811.00;;;5.93
28803;BMP280;15949;55.656;37.422;2022-10-16T07:41:47;100809.09;;;6.20
28803;BMP280;15949;55.656;37.422;2022-10-16T07:46:52;100804.81;;;6.42
28803;BMP280;15949;55.656;37.422;2022-10-16T07:51:58;100811.91;;;6.64
28803;BMP280;15949;55.656;37.422;2022-10-16T07:57:03;100814.38;;;6.87
28803;BMP280;15949;55.656;37.422;2022-10-16T08:02:09;100810.06;;;7.13
28803;BMP280;15949;55.656;37.422;2022-10-16T08:07:14;100824.28;;;7.38
28803;BMP280;15949;55.656;37.422;2022-10-16T08:12:20;100813.47;;;7.65
28803;BMP280;15949;55.656;37.422;2022-10-16T08:17:25;100811.72;;;7.91
28803;BMP280;15949;55.656;37.422;2022-10-16T08:22:31;100806.16;;;8.14
28803;BMP280;15949;55.656;37.422;2022-10-16T08:27:36;100811.19;;;8.44
28803;BMP280;15949;55.656;37.422;2022-10-16T08:32:42;100798.72;;;8.69
28803;BMP280;15949;55.656;37.422;2022-10-16T08:37:47;100804.06;;;8.98
28803;BMP280;15949;55.656;37.422;2022-10-16T08:53:57;100800.19;;;9.46
28803;BMP280;15949;55.656;37.422;2022-10-16T08:59:06;100794.09;;;9.59
28803;BMP280;15949;55.656;37.422;2022-10-16T09:15:18;100790.84;;;10.14
28803;BMP280;15949;55.656;37.422;2022-10-16T09:20:38;100783.13;;;10.31
28803;BMP280;15949;55.656;37.422;2022-10-16T09:25:48;100787.63;;;10.41
28803;BMP280;15949;55.656;37.422;2022-10-16T09:30:54;100788.31;;;10.56
28803;BMP280;15949;55.656;37.422;2022-10-16T09:36:02;100792.34;;;10.75
28803;BMP280;15949;55.656;37.422;2022-10-16T09:51:35;100777.97;;;11.06
28803;BMP280;15949;55.656;37.422;2022-10-16T09:56:41;100788.91;;;11.16
28803;BMP280;15949;55.656;37.422;2022-10-16T10:01:52;100770.22;;;11.19
28803;BMP280;15949;55.656;37.422;2022-10-16T10:06:58;100764.63;;;11.44
28803;BMP280;15949;55.656;37.422;2022-10-16T10:12:06;100774.50;;;11.47
28803;BMP280;15949;55.656;37.422;2022-10-16T10:17:20;100775.88;;;11.59
28803;BMP280;15949;55.656;37.422;2022-10-16T10:27:39;100767.84;;;11.63
28803;BMP280;15949;55.656;37.422;2022-10-16T10:33:12;100768.19;;;11.65
28803;BMP280;15949;55.656;37.422;2022-10-16T10:38:35;100772.75;;;11.64
28803;BMP280;15949;55.656;37.422;2022-10-16T10:44:10;100767.09;;;11.89
28803;BMP280;15949;55.656;37.422;2022-10-16T11:00:09;100744.66;;;12.14
28803;BMP280;15949;55.656;37.422;2022-10-16T11:05:41;100745.22;;;12.25
28803;BMP280;15949;55.656;37.422;2022-10-16T11:11:01;100751.28;;;12.29
28803;BMP280;15949;55.656;37.422;2022-10-16T11:16:18;100748.94;;;12.08
28803;BMP280;15949;55.656;37.422;2022-10-16T11:21:28;100737.00;;;12.16
28803;BMP280;15949;55.656;37.422;2022-10-16T11:26:39;100738.50;;;12.17
28803;BMP280;15949;55.656;37.422;2022-10-16T11:31:50;100738.38;;;12.24
28803;BMP280;15949;55.656;37.422;2022-10-16T11:37:05;100735.78;;;12.20
28803;BMP280;15949;55.656;37.422;2022-10-16T11:42:22;100730.22;;;12.08
28803;BMP280;15949;55.656;37.422;2022-10-16T11:47:51;100728.94;;;11.92
28803;BMP280;15949;55.656;37.422;2022-10-16T11:53:09;100729.13;;;11.78
28803;BMP280;15949;55.656;37.422;2022-10-16T12:08:54;100731.97;;;11.33
28803;BMP280;15949;55.656;37.422;2022-10-16T12:19:18;100723.28;;;10.88
28803;BMP280;15949;55.656;37.422;2022-10-16T12:24:33;100712.44;;;10.68
28803;BMP280;15949;55.656;37.422;2022-10-16T12:29:41;100712.88;;;10.63
28803;BMP280;15949;55.656;37.422;2022-10-16T12:34:50;100704.97;;;10.48
28803;BMP280;15949;55.656;37.422;2022-10-16T12:39:56;100712.97;;;10.48
28803;BMP280;15949;55.656;37.422;2022-10-16T12:50:32;100706.25;;;10.36
28803;BMP280;15949;55.656;37.422;2022-10-16T13:01:28;100707.44;;;10.25
28803;BMP280;15949;55.656;37.422;2022-10-16T13:06:39;100707.50;;;10.18
28803;BMP280;15949;55.656;37.422;2022-10-16T13:17:41;100712.53;;;10.01
28803;BMP280;15949;55.656;37.422;2022-10-16T13:22:58;100707.31;;;9.83
28803;BMP280;15949;55.656;37.422;2022-10-16T13:28:10;100708.84;;;9.81
28803;BMP280;15949;55.656;37.422;2022-10-16T13:33:20;100700.56;;;9.64
28803;BMP280;15949;55.656;37.422;2022-10-16T13:38:28;100703.22;;;9.64
28803;BMP280;15949;55.656;37.422;2022-10-16T13:43:38;100702.88;;;9.55
28803;BMP280;15949;55.656;37.422;2022-10-16T13:48:59;100702.16;;;9.44
28803;BMP280;15949;55.656;37.422;2022-10-16T13:54:05;100700.69;;;9.36
28803;BMP280;15949;55.656;37.422;2022-10-16T13:59:32;100706.81;;;9.11
28803;BMP280;15949;55.656;37.422;2022-10-16T14:04:38;100702.66;;;9.03
28803;BMP280;15949;55.656;37.422;2022-10-16T14:09:48;100704.56;;;8.99
28803;BMP280;15949;55.656;37.422;2022-10-16T14:14:55;100709.13;;;8.88
28803;BMP280;15949;55.656;37.422;2022-10-16T14:20:05;100708.41;;;8.69
28803;BMP280;15949;55.656;37.422;2022-10-16T14:30:27;100704.53;;;8.35
28803;BMP280;15949;55.656;37.422;2022-10-16T14:35:33;100695.44;;;8.14
28803;BMP280;15949;55.656;37.422;2022-10-16T14:40:47;100707.53;;;8.01
28803;BMP280;15949;55.656;37.422;2022-10-16T14:45:55;100715.88;;;8.03
28803;BMP280;15949;55.656;37.422;2022-10-16T14:51:01;100707.16;;;7.99
28803;BMP280;15949;55.656;37.422;2022-10-16T14:56:19;100713.16;;;7.81
28803;BMP280;15949;55.656;37.422;2022-10-16T15:01:25;100716.16;;;7.80
28803;BMP280;15949;55.656;37.422;2022-10-16T15:06:30;100717.28;;;7.75
28803;BMP280;15949;55.656;37.422;2022-10-16T15:11:36;100717.28;;;7.68
28803;BMP280;15949;55.656;37.422;2022-10-16T15:16:42;100715.72;;;7.60
28803;BMP280;15949;55.656;37.422;2022-10-16T15:21:48;100717.19;;;7.54
28803;BMP280;15949;55.656;37.422;2022-10-16T15:26:55;100711.09;;;7.46
28803;BMP280;15949;55.656;37.422;2022-10-16T15:32:00;100717.81;;;7.33
28803;BMP280;15949;55.656;37.422;2022-10-16T15:37:06;100700.38;;;7.28
28803;BMP280;15949;55.656;37.422;2022-10-16T15:42:11;100702.97;;;7.21
28803;BMP280;15949;55.656;37.422;2022-10-16T15:47:17;100703.38;;;7.23
28803;BMP280;15949;55.656;37.422;2022-10-16T15:52:23;100704.13;;;7.20
28803;BMP280;15949;55.656;37.422;2022-10-16T15:57:28;100701.81;;;7.15
28803;BMP280;15949;55.656;37.422;2022-10-16T16:02:34;100696.50;;;7.15
28803;BMP280;15949;55.656;37.422;2022-10-16T16:07:40;100702.94;;;7.14
28803;BMP280;15949;55.656;37.422;2022-10-16T16:12:49;100704.81;;;7.13
28803;BMP280;15949;55.656;37.422;2022-10-16T16:17:57;100696.13;;;7.13
28803;BMP280;15949;55.656;37.422;2022-10-16T16:23:02;100710.09;;;7.06
28803;BMP280;15949;55.656;37.422;2022-10-16T16:28:08;100709.28;;;6.99
28803;BMP280;15949;55.656;37.422;2022-10-16T16:33:15;100707.31;;;6.88
28803;BMP280;15949;55.656;37.422;2022-10-16T16:38:21;100707.31;;;6.88
28803;BMP280;15949;55.656;37.422;2022-10-16T16:43:27;100714.06;;;6.82
28803;BMP280;15949;55.656;37.422;2022-10-16T16:48:33;100709.84;;;6.74
28803;BMP280;15949;55.656;37.422;2022-10-16T16:53:38;100702.22;;;6.69
28803;BMP280;15949;55.656;37.422;2022-10-16T16:58:48;100704.41;;;6.60
28803;BMP280;15949;55.656;37.422;2022-10-16T17:03:56;100701.28;;;6.51
28803;BMP280;15949;55.656;37.422;2022-10-16T17:09:03;100707.25;;;6.40
28803;BMP280;15949;55.656;37.422;2022-10-16T17:14:09;100702.28;;;6.35
28803;BMP280;15949;55.656;37.422;2022-10-16T17:19:17;100702.94;;;6.25
28803;BMP280;15949;55.656;37.422;2022-10-16T17:24:23;100704.78;;;6.21
28803;BMP280;15949;55.656;37.422;2022-10-16T17:29:29;100707.75;;;6.16
28803;BMP280;15949;55.656;37.422;2022-10-16T17:34:35;100709.97;;;6.14
28803;BMP280;15949;55.656;37.422;2022-10-16T17:39:41;100705.47;;;6.14
28803;BMP280;15949;55.656;37.422;2022-10-16T17:44:47;100711.09;;;6.09
28803;BMP280;15949;55.656;37.422;2022-10-16T17:49:52;100709.09;;;6.02
28803;BMP280;15949;55.656;37.422;2022-10-16T17:54:58;100707.59;;;6.01
28803;BMP280;15949;55.656;37.422;2022-10-16T18:00:04;100707.47;;;5.94
28803;BMP280;15949;55.656;37.422;2022-10-16T18:05:10;100706.72;;;5.94
28803;BMP280;15949;55.656;37.422;2022-10-16T18:10:16;100705.09;;;5.82
28803;BMP280;15949;55.656;37.422;2022-10-16T18:15:22;100703.53;;;5.81
28803;BMP280;15949;55.656;37.422;2022-10-16T18:20:28;100710.34;;;5.78
28803;BMP280;15949;55.656;37.422;2022-10-16T18:25:33;100702.75;;;5.77
28803;BMP280;15949;55.656;37.422;2022-10-16T18:30:39;100716.28;;;5.72
28803;BMP280;15949;55.656;37.422;2022-10-16T18:35:49;100706.44;;;5.69
28803;BMP280;15949;55.656;37.422;2022-10-16T18:40:55;100700.75;;;5.67
28803;BMP280;15949;55.656;37.422;2022-10-16T18:46:04;100709.44;;;5.67
28803;BMP280;15949;55.656;37.422;2022-10-16T18:56:30;100707.81;;;5.59
28803;BMP280;15949;55.656;37.422;2022-10-16T19:01:36;100700.25;;;5.61
28803;BMP280;15949;55.656;37.422;2022-10-16T19:06:47;100701.78;;;5.59
28803;BMP280;15949;55.656;37.422;2022-10-16T19:11:53;100695.72;;;5.58
28803;BMP280;15949;55.656;37.422;2022-10-16T19:16:59;100689.25;;;5.55
28803;BMP280;15949;55.656;37.422;2022-10-16T19:22:05;100698.31;;;5.54
28803;BMP280;15949;55.656;37.422;2022-10-16T19:27:31;100696.38;;;5.51
28803;BMP280;15949;55.656;37.422;2022-10-16T19:32:37;100690.63;;;5.46
28803;BMP280;15949;55.656;37.422;2022-10-16T19:37:43;100686.50;;;5.48
28803;BMP280;15949;55.656;37.422;2022-10-16T19:42:48;100685.28;;;5.42
28803;BMP280;15949;55.656;37.422;2022-10-16T19:47:54;100696.22;;;5.41
28803;BMP280;15949;55.656;37.422;2022-10-16T19:52:59;100694.34;;;5.41
28803;BMP280;15949;55.656;37.422;2022-10-16T19:58:05;100696.94;;;5.38
28803;BMP280;15949;55.656;37.422;2022-10-16T20:03:11;100690.41;;;5.31
28803;BMP280;15949;55.656;37.422;2022-10-16T20:08:16;100699.41;;;5.27
28803;BMP280;15949;55.656;37.422;2022-10-16T20:13:22;100695.94;;;5.23
28803;BMP280;15949;55.656;37.422;2022-10-16T20:18:28;100694.44;;;5.22
28803;BMP280;15949;55.656;37.422;2022-10-16T20:23:33;100695.44;;;5.13
28803;BMP280;15949;55.656;37.422;2022-10-16T20:28:40;100687.44;;;5.06
28803;BMP280;15949;55.656;37.422;2022-10-16T20:33:46;100678.94;;;4.97
28803;BMP280;15949;55.656;37.422;2022-10-16T20:38:52;100673.66;;;4.97
28803;BMP280;15949;55.656;37.422;2022-10-16T20:43:58;100677.38;;;4.93
28803;BMP280;15949;55.656;37.422;2022-10-16T20:49:03;100687.19;;;4.92
28803;BMP280;15949;55.656;37.422;2022-10-16T20:54:09;100680.31;;;4.87
28803;BMP280;15949;55.656;37.422;2022-10-16T20:59:15;100678.75;;;4.83
28803;BMP280;15949;55.656;37.422;2022-10-16T21:04:21;100676.53;;;4.85
28803;BMP280;15949;55.656;37.422;2022-10-16T21:09:26;100670.50;;;4.88
28803;BMP280;15949;55.656;37.422;2022-10-16T21:14:32;100668.88;;;4.80
28803;BMP280;15949;55.656;37.422;2022-10-16T21:19:37;100676.78;;;4.80
28803;BMP280;15949;55.656;37.422;2022-10-16T21:24:43;100667.34;;;4.79
28803;BMP280;15949;55.656;37.422;2022-10-16T21:29:51;100671.25;;;4.85
28803;BMP280;15949;55.656;37.422;2022-10-16T21:34:57;100665.53;;;4.83
28803;BMP280;15949;55.656;37.422;2022-10-16T21:40:03;100659.75;;;4.74
28803;BMP280;15949;55.656;37.422;2022-10-16T21:45:09;100657.50;;;4.76
28803;BMP280;15949;55.656;37.422;2022-10-16T21:50:14;100672.72;;;4.86
28803;BMP280;15949;55.656;37.422;2022-10-16T21:55:20;100672.06;;;4.89
28803;BMP280;15949;55.656;37.422;2022-10-16T22:00:26;100676.16;;;4.86
28803;BMP280;15949;55.656;37.422;2022-10-16T22:05:34;100669.16;;;4.75
28803;BMP280;15949;55.656;37.422;2022-10-16T22:10:41;100658.97;;;4.73
28803;BMP280;15949;55.656;37.422;2022-10-16T22:15:48;100662.19;;;4.63
28803;BMP280;15949;55.656;37.422;2022-10-16T22:20:56;100661.78;;;4.61
28803;BMP280;15949;55.656;37.422;2022-10-16T22:26:07;100671.56;;;4.60
28803;BMP280;15949;55.656;37.422;2022-10-16T22:31:14;100671.44;;;4.53
28803;BMP280;15949;55.656;37.422;2022-10-16T22:36:20;100659.00;;;4.54
28803;BMP280;15949;55.656;37.422;2022-10-16T22:41:25;100659.41;;;4.56
28803;BMP280;15949;55.656;37.422;2022-10-16T22:46:31;100663.84;;;4.52
28803;BMP280;15949;55.656;37.422;2022-10-16T22:51:37;100666.47;;;4.48
28803;BMP280;15949;55.656;37.422;2022-10-16T22:56:42;100673.38;;;4.56
28803;BMP280;15949;55.656;37.422;2022-10-16T23:01:48;100658.31;;;4.57
28803;BMP280;15949;55.656;37.422;2022-10-16T23:06:53;100652.00;;;4.61
28803;BMP280;15949;55.656;37.422;2022-10-16T23:11:59;100653.88;;;4.61
28803;BMP280;15949;55.656;37.422;2022-10-16T23:17:04;100643.06;;;4.70
28803;BMP280;15949;55.656;37.422;2022-10-16T23:22:10;100636.38;;;4.76
28803;BMP280;15949;55.656;37.422;2022-10-16T23:27:16;100645.41;;;4.75
28803;BMP280;15949;55.656;37.422;2022-10-16T23:32:21;100643.25;;;4.80
28803;BMP280;15949;55.656;37.422;2022-10-16T23:37:27;100629.56;;;4.75
28803;BMP280;15949;55.656;37.422;2022-10-16T23:42:32;100628.59;;;4.83
28803;BMP280;15949;55.656;37.422;2022-10-16T23:47:38;100622.06;;;4.77
28803;BMP280;15949;55.656;37.422;2022-10-16T23:52:45;100626.91;;;4.75
28803;BMP280;15949;55.656;37.422;2022-10-16T23:57:51;100620.38;;;4.65
